sensor_id;sensor_type;location;lat;lon;timestamp;P1;durP1;ratioP1;P2;durP2;ratioP2
43676;SDS011;29275;48.800;18.102;2023-06-22T00:00:40;98.22;;;92.22;;
43676;SDS011;29275;48.800;18.102;2023-06-22T00:03:44;105.80;;;98.63;;
43676;SDS011;29275;48.800;18.102;2023-06-22T00:06:47;72.05;;;66.95;;
43676;SDS011;29275;48.800;18.102;2023-06-22T00:09:50;100.88;;;94.80;;
43676;SDS011;29275;48.800;18.102;2023-06-22T00:12:53;72.18;;;67.32;;
43676;SDS011;29275;48.800;18.102;2023-06-22T00:15:56;63.83;;;59.53;;
43676;SDS011;29275;48.800;18.102;2023-06-22T00:18:59;62.20;;;58.17;;
43676;SDS011;29275;48.800;18.102;2023-06-22T00:22:04;70.22;;;64.82;;
43676;SDS011;29275;48.800;18.102;2023-06-22T00:25:07;91.68;;;84.65;;
43676;SDS011;29275;48.800;18.102;2023-06-22T00:28:10;55.72;;;51.55;;
43676;SDS011;29275;48.800;18.102;2023-06-22T00:31:13;67.07;;;61.50;;
43676;SDS011;29275;48.800;18.102;2023-06-22T00:34:16;72.70;;;66.80;;
43676;SDS011;29275;48.800;18.102;2023-06-22T00:37:19;63.17;;;57.83;;
43676;SDS011;29275;48.800;18.102;2023-06-22T00:40:25;59.00;;;54.20;;
43676;SDS011;29275;48.800;18.102;2023-06-22T00:43:29;59.50;;;54.42;;
43676;SDS011;29275;48.800;18.102;2023-06-22T00:46:32;45.75;;;42.22;;
43676;SDS011;29275;48.800;18.102;2023-06-22T00:49:35;59.30;;;54.10;;
43676;SDS011;29275;48.800;18.102;2023-06-22T00:52:38;59.35;;;54.85;;
43676;SDS011;29275;48.800;18.102;2023-06-22T00:55:45;64.90;;;59.78;;
43676;SDS011;29275;48.800;18.102;2023-06-22T00:58:54;51.92;;;47.53;;
43676;SDS011;29275;48.800;18.102;2023-06-22T01:01:57;52.05;;;47.65;;
43676;SDS011;29275;48.800;18.102;2023-06-22T01:05:00;67.00;;;61.63;;
43676;SDS011;29275;48.800;18.102;2023-06-22T01:11:26;48.53;;;43.80;;
43676;SDS011;29275;48.800;18.102;2023-06-22T01:14:37;50.63;;;46.38;;
43676;SDS011;29275;48.800;18.102;2023-06-22T01:17:53;40.97;;;37.17;;
43676;SDS011;29275;48.800;18.102;2023-06-22T01:20:56;41.83;;;38.25;;
43676;SDS011;29275;48.800;18.102;2023-06-22T01:30:45;37.08;;;30.92;;
43676;SDS011;29275;48.800;18.102;2023-06-22T01:33:50;35.95;;;32.55;;
43676;SDS011;29275;48.800;18.102;2023-06-22T01:36:55;36.33;;;32.30;;
43676;SDS011;29275;48.800;18.102;2023-06-22T01:39:59;46.00;;;41.72;;
43676;SDS011;29275;48.800;18.102;2023-06-22T01:43:02;35.88;;;32.15;;
43676;SDS011;29275;48.800;18.102;2023-06-22T01:46:06;33.17;;;29.67;;
43676;SDS011;29275;48.800;18.102;2023-06-22T01:49:09;37.88;;;32.63;;
43676;SDS011;29275;48.800;18.102;2023-06-22T01:52:13;41.15;;;37.33;;
43676;SDS011;29275;48.800;18.102;2023-06-22T01:55:16;41.60;;;37.58;;
43676;SDS011;29275;48.800;18.102;2023-06-22T01:58:20;50.35;;;46.53;;
43676;SDS011;29275;48.800;18.102;2023-06-22T02:01:24;27.60;;;25.10;;
43676;SDS011;29275;48.800;18.102;2023-06-22T02:04:51;26.35;;;24.17;;
43676;SDS011;29275;48.800;18.102;2023-06-22T02:08:07;21.35;;;19.55;;
43676;SDS011;29275;48.800;18.102;2023-06-22T02:11:12;22.10;;;20.13;;
43676;SDS011;29275;48.800;18.102;2023-06-22T02:14:17;19.80;;;18.13;;
43676;SDS011;29275;48.800;18.102;2023-06-22T02:17:21;24.10;;;21.95;;
43676;SDS011;29275;48.800;18.102;2023-06-22T02:20:25;21.15;;;19.52;;
43676;SDS011;29275;48.800;18.102;2023-06-22T02:23:31;22.63;;;20.45;;
43676;SDS011;29275;48.800;18.102;2023-06-22T02:26:36;20.70;;;19.23;;
43676;SDS011;29275;48.800;18.102;2023-06-22T02:29:41;17.00;;;15.48;;
43676;SDS011;29275;48.800;18.102;2023-06-22T02:32:44;21.73;;;19.63;;
43676;SDS011;29275;48.800;18.102;2023-06-22T02:35:50;21.90;;;19.80;;
43676;SDS011;29275;48.800;18.102;2023-06-22T02:38:53;16.02;;;14.55;;
43676;SDS011;29275;48.800;18.102;2023-06-22T02:41:59;16.73;;;14.43;;
43676;SDS011;29275;48.800;18.102;2023-06-22T02:45:01;17.90;;;12.60;;
43676;SDS011;29275;48.800;18.102;2023-06-22T02:48:04;15.43;;;13.30;;
43676;SDS011;29275;48.800;18.102;2023-06-22T02:51:08;17.90;;;14.98;;
43676;SDS011;29275;48.800;18.102;2023-06-22T02:54:12;21.45;;;19.48;;
43676;SDS011;29275;48.800;18.102;2023-06-22T02:57:16;23.48;;;15.38;;
43676;SDS011;29275;48.800;18.102;2023-06-22T03:00:19;18.02;;;16.60;;
43676;SDS011;29275;48.800;18.102;2023-06-22T03:03:23;20.55;;;18.75;;
43676;SDS011;29275;48.800;18.102;2023-06-22T03:06:28;21.08;;;18.90;;
43676;SDS011;29275;48.800;18.102;2023-06-22T03:09:31;25.95;;;23.50;;
43676;SDS011;29275;48.800;18.102;2023-06-22T03:12:34;19.67;;;17.52;;
43676;SDS011;29275;48.800;18.102;2023-06-22T03:15:37;27.60;;;25.05;;
43676;SDS011;29275;48.800;18.102;2023-06-22T03:18:41;24.25;;;22.20;;
43676;SDS011;29275;48.800;18.102;2023-06-22T03:21:44;22.33;;;20.58;;
43676;SDS011;29275;48.800;18.102;2023-06-22T03:24:47;25.08;;;22.65;;
43676;SDS011;29275;48.800;18.102;2023-06-22T03:27:50;19.33;;;17.65;;
43676;SDS011;29275;48.800;18.102;2023-06-22T03:30:53;15.63;;;13.95;;
43676;SDS011;29275;48.800;18.102;2023-06-22T03:33:57;18.55;;;15.52;;
43676;SDS011;29275;48.800;18.102;2023-06-22T03:37:00;37.83;;;24.58;;
43676;SDS011;29275;48.800;18.102;2023-06-22T03:40:03;36.10;;;22.05;;
43676;SDS011;29275;48.800;18.102;2023-06-22T03:43:08;22.58;;;20.38;;
43676;SDS011;29275;48.800;18.102;2023-06-22T03:46:11;29.63;;;27.65;;
43676;SDS011;29275;48.800;18.102;2023-06-22T03:49:14;20.40;;;18.48;;
43676;SDS011;29275;48.800;18.102;2023-06-22T03:52:17;29.77;;;27.45;;
43676;SDS011;29275;48.800;18.102;2023-06-22T03:55:20;25.70;;;23.90;;
43676;SDS011;29275;48.800;18.102;2023-06-22T03:58:22;35.47;;;32.10;;
43676;SDS011;29275;48.800;18.102;2023-06-22T04:01:25;49.35;;;45.22;;
43676;SDS011;29275;48.800;18.102;2023-06-22T04:04:28;70.32;;;65.22;;
43676;SDS011;29275;48.800;18.102;2023-06-22T04:07:31;117.55;;;109.20;;
43676;SDS011;29275;48.800;18.102;2023-06-22T04:10:34;105.30;;;98.45;;
43676;SDS011;29275;48.800;18.102;2023-06-22T04:13:37;126.90;;;119.00;;
43676;SDS011;29275;48.800;18.102;2023-06-22T04:16:40;218.60;;;204.85;;
43676;SDS011;29275;48.800;18.102;2023-06-22T04:19:43;178.77;;;168.48;;
43676;SDS011;29275;48.800;18.102;2023-06-22T04:22:46;165.48;;;155.35;;
43676;SDS011;29275;48.800;18.102;2023-06-22T04:25:49;174.45;;;163.10;;
43676;SDS011;29275;48.800;18.102;2023-06-22T04:28:53;158.07;;;148.15;;
43676;SDS011;29275;48.800;18.102;2023-06-22T04:31:57;181.05;;;170.27;;
43676;SDS011;29275;48.800;18.102;2023-06-22T04:35:01;173.60;;;162.93;;
43676;SDS011;29275;48.800;18.102;2023-06-22T04:38:05;136.90;;;129.02;;
43676;SDS011;29275;48.800;18.102;2023-06-22T04:41:08;147.90;;;138.65;;
43676;SDS011;29275;48.800;18.102;2023-06-22T04:44:17;103.97;;;97.75;;
43676;SDS011;29275;48.800;18.102;2023-06-22T04:47:26;103.55;;;96.07;;
43676;SDS011;29275;48.800;18.102;2023-06-22T04:50:29;100.40;;;93.75;;
43676;SDS011;29275;48.800;18.102;2023-06-22T04:53:33;107.97;;;101.25;;
43676;SDS011;29275;48.800;18.102;2023-06-22T04:56:36;109.15;;;102.22;;
43676;SDS011;29275;48.800;18.102;2023-06-22T04:59:40;100.57;;;93.45;;
43676;SDS011;29275;48.800;18.102;2023-06-22T05:02:44;123.88;;;84.13;;
43676;SDS011;29275;48.800;18.102;2023-06-22T05:05:48;131.98;;;111.55;;
43676;SDS011;29275;48.800;18.102;2023-06-22T05:08:54;82.20;;;49.17;;
43676;SDS011;29275;48.800;18.102;2023-06-22T05:12:01;58.42;;;46.88;;
43676;SDS011;29275;48.800;18.102;2023-06-22T05:15:05;68.13;;;46.78;;
43676;SDS011;29275;48.800;18.102;2023-06-22T05:18:09;67.10;;;48.13;;
43676;SDS011;29275;48.800;18.102;2023-06-22T05:21:14;75.47;;;52.22;;
43676;SDS011;29275;48.800;18.102;2023-06-22T05:24:17;54.78;;;49.67;;
43676;SDS011;29275;48.800;18.102;2023-06-22T05:27:20;60.55;;;42.05;;
43676;SDS011;29275;48.800;18.102;2023-06-22T05:30:23;46.25;;;40.25;;
43676;SDS011;29275;48.800;18.102;2023-06-22T05:33:26;38.72;;;35.22;;
43676;SDS011;29275;48.800;18.102;2023-06-22T05:36:29;41.72;;;37.75;;
43676;SDS011;29275;48.800;18.102;2023-06-22T05:39:32;46.65;;;42.83;;
43676;SDS011;29275;48.800;18.102;2023-06-22T05:42:35;40.60;;;37.28;;
43676;SDS011;29275;48.800;18.102;2023-06-22T05:45:38;41.67;;;38.00;;
43676;SDS011;29275;48.800;18.102;2023-06-22T05:48:41;39.10;;;36.03;;
43676;SDS011;29275;48.800;18.102;2023-06-22T05:51:44;55.15;;;51.25;;
43676;SDS011;29275;48.800;18.102;2023-06-22T05:54:47;56.72;;;52.38;;
43676;SDS011;29275;48.800;18.102;2023-06-22T05:57:50;71.93;;;66.40;;
43676;SDS011;29275;48.800;18.102;2023-06-22T06:00:53;64.78;;;60.22;;
43676;SDS011;29275;48.800;18.102;2023-06-22T06:03:56;47.55;;;43.40;;
43676;SDS011;29275;48.800;18.102;2023-06-22T06:06:59;52.47;;;48.70;;
43676;SDS011;29275;48.800;18.102;2023-06-22T06:10:02;60.00;;;55.30;;
43676;SDS011;29275;48.800;18.102;2023-06-22T06:13:07;70.25;;;65.88;;
43676;SDS011;29275;48.800;18.102;2023-06-22T06:16:10;66.45;;;61.50;;
43676;SDS011;29275;48.800;18.102;2023-06-22T06:19:13;65.25;;;60.53;;
43676;SDS011;29275;48.800;18.102;2023-06-22T06:22:16;73.40;;;68.20;;
43676;SDS011;29275;48.800;18.102;2023-06-22T06:25:19;134.15;;;125.15;;
43676;SDS011;29275;48.800;18.102;2023-06-22T06:28:24;136.07;;;128.25;;
43676;SDS011;29275;48.800;18.102;2023-06-22T06:31:27;163.30;;;152.55;;
43676;SDS011;29275;48.800;18.102;2023-06-22T06:34:31;177.88;;;166.63;;
43676;SDS011;29275;48.800;18.102;2023-06-22T06:37:35;186.77;;;175.20;;
43676;SDS011;29275;48.800;18.102;2023-06-22T06:40:39;168.38;;;156.93;;
43676;SDS011;29275;48.800;18.102;2023-06-22T06:43:43;276.85;;;258.85;;
43676;SDS011;29275;48.800;18.102;2023-06-22T06:46:46;207.45;;;194.38;;
43676;SDS011;29275;48.800;18.102;2023-06-22T06:49:49;293.77;;;274.85;;
43676;SDS011;29275;48.800;18.102;2023-06-22T06:52:52;248.38;;;233.48;;
43676;SDS011;29275;48.800;18.102;2023-06-22T06:55:56;251.25;;;235.13;;
43676;SDS011;29275;48.800;18.102;2023-06-22T06:58:59;266.17;;;249.43;;
43676;SDS011;29275;48.800;18.102;2023-06-22T07:02:02;217.75;;;204.65;;
43676;SDS011;29275;48.800;18.102;2023-06-22T07:05:05;301.73;;;282.45;;
43676;SDS011;29275;48.800;18.102;2023-06-22T07:08:09;192.75;;;179.73;;
43676;SDS011;29275;48.800;18.102;2023-06-22T07:11:12;238.30;;;223.82;;
43676;SDS011;29275;48.800;18.102;2023-06-22T07:14:15;185.27;;;173.18;;
43676;SDS011;29275;48.800;18.102;2023-06-22T07:17:18;187.82;;;176.13;;
43676;SDS011;29275;48.800;18.102;2023-06-22T07:20:21;212.68;;;199.55;;
43676;SDS011;29275;48.800;18.102;2023-06-22T07:23:24;231.07;;;215.38;;
43676;SDS011;29275;48.800;18.102;2023-06-22T07:26:27;294.63;;;275.63;;
43676;SDS011;29275;48.800;18.102;2023-06-22T07:29:30;346.02;;;323.83;;
43676;SDS011;29275;48.800;18.102;2023-06-22T07:32:34;291.67;;;272.45;;
43676;SDS011;29275;48.800;18.102;2023-06-22T07:35:37;259.13;;;242.68;;
43676;SDS011;29275;48.800;18.102;2023-06-22T07:38:40;343.95;;;322.27;;
43676;SDS011;29275;48.800;18.102;2023-06-22T07:41:44;334.05;;;311.58;;
43676;SDS011;29275;48.800;18.102;2023-06-22T07:44:47;372.85;;;349.98;;
43676;SDS011;29275;48.800;18.102;2023-06-22T07:47:51;386.40;;;360.42;;
43676;SDS011;29275;48.800;18.102;2023-06-22T07:50:54;298.35;;;278.55;;
43676;SDS011;29275;48.800;18.102;2023-06-22T07:53:56;338.75;;;316.17;;
43676;SDS011;29275;48.800;18.102;2023-06-22T07:57:00;445.88;;;414.65;;
43676;SDS011;29275;48.800;18.102;2023-06-22T08:00:03;414.60;;;385.58;;
43676;SDS011;29275;48.800;18.102;2023-06-22T08:03:17;409.30;;;380.60;;
43676;SDS011;29275;48.800;18.102;2023-06-22T08:06:20;543.50;;;504.90;;
43676;SDS011;29275;48.800;18.102;2023-06-22T08:09:23;539.60;;;501.08;;
43676;SDS011;29275;48.800;18.102;2023-06-22T08:12:27;553.97;;;514.15;;
43676;SDS011;29275;48.800;18.102;2023-06-22T08:15:31;495.50;;;459.52;;
43676;SDS011;29275;48.800;18.102;2023-06-22T08:18:34;500.25;;;462.77;;
43676;SDS011;29275;48.800;18.102;2023-06-22T08:21:37;585.83;;;541.97;;
43676;SDS011;29275;48.800;18.102;2023-06-22T08:24:40;629.30;;;581.92;;
43676;SDS011;29275;48.800;18.102;2023-06-22T08:27:47;631.15;;;585.17;;
43676;SDS011;29275;48.800;18.102;2023-06-22T08:30:53;628.33;;;580.60;;
43676;SDS011;29275;48.800;18.102;2023-06-22T08:33:58;667.65;;;615.80;;
43676;SDS011;29275;48.800;18.102;2023-06-22T08:37:01;743.25;;;684.42;;
43676;SDS011;29275;48.800;18.102;2023-06-22T08:40:09;778.63;;;719.90;;
43676;SDS011;29275;48.800;18.102;2023-06-22T08:43:13;744.83;;;684.92;;
43676;SDS011;29275;48.800;18.102;2023-06-22T08:46:17;779.83;;;716.72;;
43676;SDS011;29275;48.800;18.102;2023-06-22T08:49:24;821.15;;;752.28;;
43676;SDS011;29275;48.800;18.102;2023-06-22T08:52:27;758.67;;;697.75;;
43676;SDS011;29275;48.800;18.102;2023-06-22T08:55:30;760.85;;;698.10;;
43676;SDS011;29275;48.800;18.102;2023-06-22T08:58:33;820.40;;;753.72;;
43676;SDS011;29275;48.800;18.102;2023-06-22T09:01:36;770.92;;;709.88;;
43676;SDS011;29275;48.800;18.102;2023-06-22T09:04:39;807.15;;;740.65;;
43676;SDS011;29275;48.800;18.102;2023-06-22T09:07:42;833.70;;;765.30;;
43676;SDS011;29275;48.800;18.102;2023-06-22T09:10:46;783.33;;;718.47;;
43676;SDS011;29275;48.800;18.102;2023-06-22T09:13:49;812.15;;;746.42;;
43676;SDS011;29275;48.800;18.102;2023-06-22T09:16:51;895.58;;;820.83;;
43676;SDS011;29275;48.800;18.102;2023-06-22T09:19:55;856.33;;;784.55;;
43676;SDS011;29275;48.800;18.102;2023-06-22T09:22:58;893.03;;;815.47;;
43676;SDS011;29275;48.800;18.102;2023-06-22T09:26:01;932.10;;;851.25;;
43676;SDS011;29275;48.800;18.102;2023-06-22T09:29:04;908.72;;;832.08;;
43676;SDS011;29275;48.800;18.102;2023-06-22T09:32:08;940.25;;;855.15;;
43676;SDS011;29275;48.800;18.102;2023-06-22T09:35:11;910.67;;;826.17;;
43676;SDS011;29275;48.800;18.102;2023-06-22T09:38:16;1012.45;;;919.40;;
43676;SDS011;29275;48.800;18.102;2023-06-22T09:41:19;941.25;;;852.25;;
43676;SDS011;29275;48.800;18.102;2023-06-22T09:44:23;1132.43;;;999.90;;
43676;SDS011;29275;48.800;18.102;2023-06-22T09:47:25;1174.40;;;999.90;;
43676;SDS011;29275;48.800;18.102;2023-06-22T09:50:29;1106.15;;;987.60;;
43676;SDS011;29275;48.800;18.102;2023-06-22T09:53:32;1201.18;;;999.90;;
43676;SDS011;29275;48.800;18.102;2023-06-22T09:56:37;1295.30;;;999.90;;
43676;SDS011;29275;48.800;18.102;2023-06-22T09:59:40;1261.03;;;999.90;;
43676;SDS011;29275;48.800;18.102;2023-06-22T10:02:43;1409.43;;;999.90;;
43676;SDS011;29275;48.800;18.102;2023-06-22T10:05:47;1709.43;;;999.90;;
43676;SDS011;29275;48.800;18.102;2023-06-22T10:08:50;1403.68;;;999.90;;
43676;SDS011;29275;48.800;18.102;2023-06-22T10:11:54;1582.63;;;999.90;;
43676;SDS011;29275;48.800;18.102;2023-06-22T10:14:57;1362.53;;;999.90;;
43676;SDS011;29275;48.800;18.102;2023-06-22T10:18:00;1715.47;;;999.90;;
43676;SDS011;29275;48.800;18.102;2023-06-22T10:21:03;1903.05;;;999.90;;
43676;SDS011;29275;48.800;18.102;2023-06-22T10:24:06;1803.25;;;999.90;;
43676;SDS011;29275;48.800;18.102;2023-06-22T10:27:10;1999.90;;;999.90;;
43676;SDS011;29275;48.800;18.102;2023-06-22T10:30:14;1999.90;;;999.90;;
43676;SDS011;29275;48.800;18.102;2023-06-22T10:33:19;1999.90;;;999.90;;
43676;SDS011;29275;48.800;18.102;2023-06-22T10:36:23;1999.90;;;999.90;;
43676;SDS011;29275;48.800;18.102;2023-06-22T10:39:26;1999.90;;;999.90;;
43676;SDS011;29275;48.800;18.102;2023-06-22T10:42:29;1999.90;;;999.90;;
43676;SDS011;29275;48.800;18.102;2023-06-22T10:45:32;1999.90;;;999.90;;
43676;SDS011;29275;48.800;18.102;2023-06-22T10:48:35;1999.90;;;999.90;;
43676;SDS011;29275;48.800;18.102;2023-06-22T10:51:38;1999.90;;;999.90;;
43676;SDS011;29275;48.800;18.102;2023-06-22T10:54:41;1999.90;;;999.90;;
43676;SDS011;29275;48.800;18.102;2023-06-22T10:57:44;1999.90;;;999.90;;
43676;SDS011;29275;48.800;18.102;2023-06-22T11:00:49;1999.90;;;999.90;;
43676;SDS011;29275;48.800;18.102;2023-06-22T11:03:52;1999.90;;;999.90;;
43676;SDS011;29275;48.800;18.102;2023-06-22T11:06:55;1999.90;;;999.90;;
43676;SDS011;29275;48.800;18.102;2023-06-22T11:09:58;1999.90;;;999.90;;
43676;SDS011;29275;48.800;18.102;2023-06-22T11:13:01;1999.90;;;999.90;;
43676;SDS011;29275;48.800;18.102;2023-06-22T11:16:06;1999.90;;;999.90;;
43676;SDS011;29275;48.800;18.102;2023-06-22T11:19:09;1999.90;;;999.90;;
43676;SDS011;29275;48.800;18.102;2023-06-22T11:22:12;1999.90;;;999.90;;
43676;SDS011;29275;48.800;18.102;2023-06-22T11:25:15;1999.90;;;999.90;;
43676;SDS011;29275;48.800;18.102;2023-06-22T11:28:18;1999.90;;;999.90;;
43676;SDS011;29275;48.800;18.102;2023-06-22T11:31:21;1999.90;;;999.90;;
43676;SDS011;29275;48.800;18.102;2023-06-22T11:34:44;1999.90;;;999.90;;
43676;SDS011;29275;48.800;18.102;2023-06-22T11:37:47;1999.90;;;999.90;;
43676;SDS011;29275;48.800;18.102;2023-06-22T11:40:51;1999.90;;;999.90;;
43676;SDS011;29275;48.800;18.102;2023-06-22T11:43:53;1999.90;;;999.90;;
43676;SDS011;29275;48.800;18.102;2023-06-22T11:46:56;1999.90;;;999.90;;
43676;SDS011;29275;48.800;18.102;2023-06-22T11:50:00;1999.90;;;999.90;;
43676;SDS011;29275;48.800;18.102;2023-06-22T11:53:03;1999.90;;;999.90;;
43676;SDS011;29275;48.800;18.102;2023-06-22T11:56:06;1999.90;;;999.90;;
43676;SDS011;29275;48.800;18.102;2023-06-22T11:59:11;1999.90;;;999.90;;
43676;SDS011;29275;48.800;18.102;2023-06-22T12:02:14;1999.90;;;999.90;;
43676;SDS011;29275;48.800;18.102;2023-06-22T12:05:19;1999.90;;;999.90;;
43676;SDS011;29275;48.800;18.102;2023-06-22T12:08:23;1999.90;;;999.90;;
43676;SDS011;29275;48.800;18.102;2023-06-22T12:11:27;1999.90;;;999.90;;
43676;SDS011;29275;48.800;18.102;2023-06-22T12:14:30;1999.90;;;999.90;;
43676;SDS011;29275;48.800;18.102;2023-06-22T12:17:34;1999.90;;;999.90;;
43676;SDS011;29275;48.800;18.102;2023-06-22T12:20:36;1999.90;;;999.90;;
43676;SDS011;29275;48.800;18.102;2023-06-22T12:23:40;1999.90;;;999.90;;
43676;SDS011;29275;48.800;18.102;2023-06-22T12:26:42;1999.90;;;999.90;;
43676;SDS011;29275;48.800;18.102;2023-06-22T12:29:46;1999.90;;;999.90;;
43676;SDS011;29275;48.800;18.102;2023-06-22T12:32:50;1999.90;;;999.90;;
43676;SDS011;29275;48.800;18.102;2023-06-22T12:35:57;1999.90;;;999.90;;
43676;SDS011;29275;48.800;18.102;2023-06-22T12:39:00;1999.90;;;999.90;;
43676;SDS011;29275;48.800;18.102;2023-06-22T12:42:03;1999.90;;;999.90;;
43676;SDS011;29275;48.800;18.102;2023-06-22T12:45:06;1999.90;;;999.90;;
43676;SDS011;29275;48.800;18.102;2023-06-22T12:48:10;1999.90;;;999.90;;
43676;SDS011;29275;48.800;18.102;2023-06-22T12:51:19;1999.90;;;999.90;;
43676;SDS011;29275;48.800;18.102;2023-06-22T12:54:23;1999.90;;;999.90;;
43676;SDS011;29275;48.800;18.102;2023-06-22T12:57:26;1999.90;;;999.90;;
43676;SDS011;29275;48.800;18.102;2023-06-22T13:00:29;1999.90;;;999.90;;
43676;SDS011;29275;48.800;18.102;2023-06-22T13:03:33;1999.90;;;999.90;;
43676;SDS011;29275;48.800;18.102;2023-06-22T13:06:35;1999.90;;;999.90;;
43676;SDS011;29275;48.800;18.102;2023-06-22T13:09:39;1999.90;;;999.90;;
43676;SDS011;29275;48.800;18.102;2023-06-22T13:12:42;1999.90;;;999.90;;
43676;SDS011;29275;48.800;18.102;2023-06-22T13:15:45;1999.90;;;999.90;;
43676;SDS011;29275;48.800;18.102;2023-06-22T13:18:48;1999.90;;;999.90;;
43676;SDS011;29275;48.800;18.102;2023-06-22T13:21:51;1999.90;;;999.90;;
43676;SDS011;29275;48.800;18.102;2023-06-22T13:24:54;1999.90;;;999.90;;
43676;SDS011;29275;48.800;18.102;2023-06-22T13:27:58;1999.90;;;999.90;;
43676;SDS011;29275;48.800;18.102;2023-06-22T13:31:02;1999.90;;;999.90;;
43676;SDS011;29275;48.800;18.102;2023-06-22T13:34:05;1999.90;;;999.90;;
43676;SDS011;29275;48.800;18.102;2023-06-22T13:37:08;1999.90;;;999.90;;
43676;SDS011;29275;48.800;18.102;2023-06-22T13:40:11;1999.90;;;999.90;;
43676;SDS011;29275;48.800;18.102;2023-06-22T13:43:14;1999.90;;;999.90;;
43676;SDS011;29275;48.800;18.102;2023-06-22T13:46:18;1999.90;;;999.90;;
43676;SDS011;29275;48.800;18.102;2023-06-22T13:49:21;1999.90;;;999.90;;
43676;SDS011;29275;48.800;18.102;2023-06-22T13:52:24;1999.90;;;999.90;;
43676;SDS011;29275;48.800;18.102;2023-06-22T13:55:27;1999.90;;;999.90;;
43676;SDS011;29275;48.800;18.102;2023-06-22T13:58:30;1999.90;;;999.90;;
43676;SDS011;29275;48.800;18.102;2023-06-22T14:01:34;1999.90;;;999.90;;
43676;SDS011;29275;48.800;18.102;2023-06-22T14:04:37;1999.90;;;999.90;;
43676;SDS011;29275;48.800;18.102;2023-06-22T14:07:41;1999.90;;;999.90;;
43676;SDS011;29275;48.800;18.102;2023-06-22T14:10:44;1999.90;;;999.90;;
43676;SDS011;29275;48.800;18.102;2023-06-22T14:13:47;1999.90;;;999.90;;
43676;SDS011;29275;48.800;18.102;2023-06-22T14:16:50;1999.90;;;999.90;;
43676;SDS011;29275;48.800;18.102;2023-06-22T14:19:53;1999.90;;;999.90;;
43676;SDS011;29275;48.800;18.102;2023-06-22T14:22:56;1999.90;;;999.90;;
43676;SDS011;29275;48.800;18.102;2023-06-22T14:25:59;1999.90;;;999.90;;
43676;SDS011;29275;48.800;18.102;2023-06-22T14:29:02;1999.90;;;999.90;;
43676;SDS011;29275;48.800;18.102;2023-06-22T14:32:06;1999.90;;;999.90;;
43676;SDS011;29275;48.800;18.102;2023-06-22T14:35:10;1999.90;;;999.90;;
43676;SDS011;29275;48.800;18.102;2023-06-22T14:38:13;1999.90;;;999.90;;
43676;SDS011;29275;48.800;18.102;2023-06-22T14:41:16;1999.90;;;999.90;;
43676;SDS011;29275;48.800;18.102;2023-06-22T14:44:20;1999.90;;;999.90;;
43676;SDS011;29275;48.800;18.102;2023-06-22T14:47:23;1999.90;;;999.90;;
43676;SDS011;29275;48.800;18.102;2023-06-22T14:50:26;1999.90;;;999.90;;
43676;SDS011;29275;48.800;18.102;2023-06-22T14:53:29;1999.90;;;999.90;;
43676;SDS011;29275;48.800;18.102;2023-06-22T14:56:32;1999.90;;;999.90;;
43676;SDS011;29275;48.800;18.102;2023-06-22T14:59:36;1999.90;;;999.90;;
43676;SDS011;29275;48.800;18.102;2023-06-22T15:02:40;1999.90;;;999.90;;
43676;SDS011;29275;48.800;18.102;2023-06-22T15:05:45;1999.90;;;999.90;;
43676;SDS011;29275;48.800;18.102;2023-06-22T15:08:48;1999.90;;;999.90;;
43676;SDS011;29275;48.800;18.102;2023-06-22T15:11:51;1999.90;;;999.90;;
43676;SDS011;29275;48.800;18.102;2023-06-22T15:14:54;1999.90;;;999.90;;
43676;SDS011;29275;48.800;18.102;2023-06-22T15:17:57;1999.90;;;999.90;;
43676;SDS011;29275;48.800;18.102;2023-06-22T15:21:00;1999.90;;;999.90;;
43676;SDS011;29275;48.800;18.102;2023-06-22T15:24:04;1999.90;;;999.90;;
43676;SDS011;29275;48.800;18.102;2023-06-22T15:27:07;1999.90;;;999.90;;
43676;SDS011;29275;48.800;18.102;2023-06-22T15:30:10;1999.90;;;999.90;;
43676;SDS011;29275;48.800;18.102;2023-06-22T15:33:14;1999.90;;;999.90;;
43676;SDS011;29275;48.800;18.102;2023-06-22T15:36:17;1999.90;;;999.90;;
43676;SDS011;29275;48.800;18.102;2023-06-22T15:39:20;1999.90;;;999.90;;
43676;SDS011;29275;48.800;18.102;2023-06-22T15:42:23;1999.90;;;999.90;;
43676;SDS011;29275;48.800;18.102;2023-06-22T15:45:26;1999.90;;;999.90;;
43676;SDS011;29275;48.800;18.102;2023-06-22T15:48:29;1999.90;;;999.90;;
43676;SDS011;29275;48.800;18.102;2023-06-22T15:51:32;1999.90;;;999.90;;
43676;SDS011;29275;48.800;18.102;2023-06-22T15:54:35;1999.90;;;999.90;;
43676;SDS011;29275;48.800;18.102;2023-06-22T15:57:38;1999.90;;;999.90;;
43676;SDS011;29275;48.800;18.102;2023-06-22T16:00:41;1999.90;;;999.90;;
43676;SDS011;29275;48.800;18.102;2023-06-22T16:03:44;1999.90;;;999.90;;
43676;SDS011;29275;48.800;18.102;2023-06-22T16:06:47;1999.90;;;999.90;;
43676;SDS011;29275;48.800;18.102;2023-06-22T16:09:51;1999.90;;;999.90;;
43676;SDS011;29275;48.800;18.102;2023-06-22T16:12:55;1999.90;;;999.90;;
43676;SDS011;29275;48.800;18.102;2023-06-22T16:15:57;1999.90;;;999.90;;
43676;SDS011;29275;48.800;18.102;2023-06-22T16:19:01;1999.90;;;999.90;;
43676;SDS011;29275;48.800;18.102;2023-06-22T16:22:04;1999.90;;;999.90;;
43676;SDS011;29275;48.800;18.102;2023-06-22T16:25:07;1999.90;;;999.90;;
43676;SDS011;29275;48.800;18.102;2023-06-22T16:28:10;1999.90;;;999.90;;
43676;SDS011;29275;48.800;18.102;2023-06-22T16:31:13;1999.90;;;999.90;;
43676;SDS011;29275;48.800;18.102;2023-06-22T16:34:17;1999.90;;;999.90;;
43676;SDS011;29275;48.800;18.102;2023-06-22T16:37:20;1999.90;;;999.90;;
43676;SDS011;29275;48.800;18.102;2023-06-22T16:40:23;1999.90;;;999.90;;
43676;SDS011;29275;48.800;18.102;2023-06-22T16:43:27;1999.90;;;999.90;;
43676;SDS011;29275;48.800;18.102;2023-06-22T16:46:33;1999.90;;;999.90;;
43676;SDS011;29275;48.800;18.102;2023-06-22T16:49:37;1999.90;;;999.90;;
43676;SDS011;29275;48.800;18.102;2023-06-22T16:52:41;1999.90;;;999.90;;
43676;SDS011;29275;48.800;18.102;2023-06-22T16:55:49;1999.90;;;999.90;;
43676;SDS011;29275;48.800;18.102;2023-06-22T16:58:52;1999.90;;;999.90;;
43676;SDS011;29275;48.800;18.102;2023-06-22T17:02:15;1999.90;;;999.90;;
43676;SDS011;29275;48.800;18.102;2023-06-22T17:05:23;1999.90;;;999.90;;
43676;SDS011;29275;48.800;18.102;2023-06-22T17:11:35;1999.90;;;999.90;;
43676;SDS011;29275;48.800;18.102;2023-06-22T17:14:39;1999.90;;;999.90;;
43676;SDS011;29275;48.800;18.102;2023-06-22T17:17:42;1999.90;;;999.90;;
43676;SDS011;29275;48.800;18.102;2023-06-22T17:20:49;1999.90;;;999.90;;
43676;SDS011;29275;48.800;18.102;2023-06-22T17:23:52;1999.90;;;999.90;;